金門航空站 - ATIS

METAR RCBS 191300Z VRB01KT 5000 BR FEW010 BKN020 BKN120 21/21 Q1010 NOSIG RMK A2985(E)=

站台狀態:Online
最後更新:2024-04-20 03:00:02